Time;durP1;ratioP1;P1;durP2;ratioP2;P2;SDS_P1;SDS_P2;PMS_P1;PMS_P2;Temp;Humidity;BMP_temperature;BMP_pressure;BME280_temperature;BME280_humidity;BME280_pressure;Samples;Min_cycle;Max_cycle;Signal;HPM_P1;HPM_P2
2023/12/06 00:01:49;;;;;;;0.50;0.50;;;18.70;56.40;;;;;;4969236;28;20327;-73
2023/12/06 00:04:14;;;;;;;0.60;0.60;;;18.70;56.40;;;;;;4968640;28;20210;-73
2023/12/06 00:06:40;;;;;;;0.60;0.60;;;18.70;56.50;;;;;;4970904;28;20288;-73
2023/12/06 00:09:06;;;;;;;0.40;0.40;;;18.70;56.40;;;;;;4955093;28;20197;-72
2023/12/06 00:11:32;;;;;;;0.70;0.70;;;18.70;56.40;;;;;;4988023;28;20288;-73
2023/12/06 00:13:57;;;;;;;0.68;0.60;;;18.70;56.40;;;;;;4977846;28;20197;-73
2023/12/06 00:16:23;;;;;;;0.82;0.82;;;18.60;56.40;;;;;;4971636;28;20193;-73
2023/12/06 00:18:49;;;;;;;0.52;0.52;;;18.70;56.40;;;;;;4972491;28;20239;-73
2023/12/06 00:21:15;;;;;;;0.50;0.50;;;18.60;56.40;;;;;;4971914;28;20281;-73
2023/12/06 00:23:41;;;;;;;0.82;0.60;;;18.70;56.50;;;;;;4987782;28;20193;-73
2023/12/06 00:26:07;;;;;;;0.50;0.50;;;18.70;56.40;;;;;;4964795;28;20200;-73
2023/12/06 00:28:33;;;;;;;0.60;0.60;;;18.70;56.40;;;;;;4971009;28;20206;-72
2023/12/06 00:30:59;;;;;;;0.47;0.47;;;18.70;56.40;;;;;;4971545;28;20208;-73
2023/12/06 00:33:24;;;;;;;0.57;0.57;;;18.70;56.40;;;;;;4955280;28;20562;-73
2023/12/06 00:35:51;;;;;;;0.60;0.60;;;18.70;56.30;;;;;;4971293;28;20206;-73
2023/12/06 00:38:17;;;;;;;0.40;0.40;;;18.70;56.40;;;;;;4987140;28;20321;-73
2023/12/06 00:40:44;;;;;;;0.57;0.50;;;18.70;56.40;;;;;;4971593;28;20190;-73
2023/12/06 00:43:10;;;;;;;0.50;0.40;;;18.70;56.40;;;;;;4987298;28;20193;-73
2023/12/06 00:45:35;;;;;;;0.40;0.40;;;18.70;56.40;;;;;;4971457;28;20225;-73
2023/12/06 00:48:01;;;;;;;0.70;0.40;;;18.70;56.40;;;;;;4954161;28;20186;-73
2023/12/06 00:50:27;;;;;;;0.47;0.43;;;18.70;56.30;;;;;;4977021;28;20680;-72
2023/12/06 00:52:53;;;;;;;0.40;0.40;;;18.70;56.40;;;;;;4954969;28;20193;-73
2023/12/06 00:55:19;;;;;;;0.30;0.30;;;18.70;56.30;;;;;;4971259;28;20193;-73
2023/12/06 00:57:44;;;;;;;0.50;0.50;;;18.70;56.30;;;;;;4972799;28;20189;-73
2023/12/06 01:00:11;;;;;;;0.50;0.50;;;18.70;56.40;;;;;;4962240;28;20212;-73
2023/12/06 01:02:40;;;;;;;0.75;0.60;;;18.70;56.40;;;;;;4975992;28;20209;-74
2023/12/06 01:05:06;;;;;;;0.30;0.30;;;18.70;56.40;;;;;;4991056;28;20229;-72
2023/12/06 01:07:32;;;;;;;0.30;0.30;;;18.60;56.30;;;;;;4982659;28;20244;-72
2023/12/06 01:09:58;;;;;;;0.60;0.60;;;18.70;56.40;;;;;;4958406;28;20213;-73
2023/12/06 01:12:24;;;;;;;0.50;0.40;;;18.70;56.40;;;;;;4974549;28;20277;-73
2023/12/06 01:14:49;;;;;;;0.40;0.40;;;18.70;56.40;;;;;;4958266;28;20200;-73
2023/12/06 01:17:15;;;;;;;0.40;0.40;;;18.70;56.40;;;;;;4974653;28;20236;-71
2023/12/06 01:19:41;;;;;;;0.65;0.52;;;18.70;56.40;;;;;;4990756;28;20221;-72
2023/12/06 01:22:07;;;;;;;0.30;0.30;;;18.70;56.40;;;;;;4982979;28;20209;-73
2023/12/06 01:24:32;;;;;;;0.47;0.40;;;18.70;56.40;;;;;;4977103;28;20209;-73
2023/12/06 01:26:58;;;;;;;0.45;0.45;;;18.60;56.40;;;;;;4974621;28;20236;-73
2023/12/06 01:29:24;;;;;;;0.40;0.40;;;18.70;56.40;;;;;;4990688;28;20240;-73
2023/12/06 01:31:49;;;;;;;0.30;0.30;;;18.70;56.40;;;;;;4993566;28;20213;-73
2023/12/06 01:34:15;;;;;;;0.40;0.35;;;18.70;56.40;;;;;;4970531;28;20185;-73
2023/12/06 01:36:41;;;;;;;0.45;0.45;;;18.70;56.40;;;;;;4975395;28;20227;-72
2023/12/06 01:39:08;;;;;;;0.50;0.50;;;18.70;56.40;;;;;;4989242;28;20367;-73
2023/12/06 01:41:33;;;;;;;0.40;0.40;;;18.70;56.30;;;;;;4974203;28;20201;-73
2023/12/06 01:43:59;;;;;;;0.50;0.50;;;18.70;56.40;;;;;;4974028;28;20280;-73
2023/12/06 01:46:25;;;;;;;0.30;0.30;;;18.70;56.40;;;;;;4990455;28;20270;-73
2023/12/06 01:48:52;;;;;;;0.60;0.60;;;18.70;56.40;;;;;;4973932;28;20241;-73
2023/12/06 01:51:19;;;;;;;0.40;0.40;;;18.70;56.40;;;;;;4977806;28;20189;-72
2023/12/06 01:53:45;;;;;;;0.45;0.45;;;18.70;56.40;;;;;;4973868;28;20198;-73
2023/12/06 01:56:12;;;;;;;0.60;0.40;;;18.70;57.00;;;;;;4990252;28;20192;-73
2023/12/06 01:58:39;;;;;;;0.30;0.30;;;18.70;56.30;;;;;;4989692;28;20209;-73
2023/12/06 02:01:06;;;;;;;0.43;0.40;;;18.70;56.30;;;;;;4955763;28;20191;-73
2023/12/06 02:03:34;;;;;;;0.50;0.50;;;18.70;56.40;;;;;;4974786;28;20197;-73
2023/12/06 02:06:02;;;;;;;0.50;0.50;;;18.70;56.40;;;;;;4971299;28;20214;-73
2023/12/06 02:08:31;;;;;;;0.52;0.40;;;18.70;56.30;;;;;;4989388;28;20296;-71
2023/12/06 02:10:57;;;;;;;0.30;0.30;;;18.70;56.40;;;;;;4976492;28;20197;-72
2023/12/06 02:13:23;;;;;;;0.45;0.45;;;18.70;56.30;;;;;;4973513;28;20194;-72
2023/12/06 02:15:50;;;;;;;0.47;0.30;;;18.70;56.40;;;;;;4973279;28;20225;-72
2023/12/06 02:18:17;;;;;;;0.30;0.30;;;18.70;57.00;;;;;;4968307;28;20189;-73
2023/12/06 02:20:43;;;;;;;0.40;0.40;;;18.70;56.40;;;;;;4960624;28;20202;-73
2023/12/06 02:23:12;;;;;;;0.50;0.50;;;18.70;56.40;;;;;;4957383;28;20189;-71
2023/12/06 02:25:38;;;;;;;0.22;0.22;;;18.70;56.40;;;;;;4972930;28;20301;-72
2023/12/06 02:28:04;;;;;;;0.40;0.40;;;18.70;56.30;;;;;;4978014;28;20190;-72
2023/12/06 02:30:30;;;;;;;0.30;0.30;;;18.70;56.30;;;;;;4971326;28;20222;-73
2023/12/06 02:32:55;;;;;;;0.32;0.30;;;18.70;56.30;;;;;;4974234;28;20197;-72
2023/12/06 02:35:29;;;;;;;0.40;0.40;;;18.70;56.40;;;;;;4989138;28;20193;-73
2023/12/06 02:37:58;;;;;;;0.40;0.40;;;18.70;56.30;;;;;;4972906;28;20259;-73
2023/12/06 02:40:30;;;;;;;0.38;0.30;;;18.70;56.40;;;;;;4986368;28;20268;-73
2023/12/06 02:42:58;;;;;;;0.30;0.30;;;18.70;56.30;;;;;;4985911;28;20281;-73
2023/12/06 02:45:23;;;;;;;0.30;0.30;;;18.70;56.40;;;;;;4983815;28;20209;-72
2023/12/06 02:47:49;;;;;;;0.40;0.40;;;18.70;56.40;;;;;;4978187;28;20277;-73
2023/12/06 02:50:15;;;;;;;0.50;0.50;;;18.70;56.40;;;;;;4973736;28;20233;-73
2023/12/06 02:52:40;;;;;;;0.30;0.30;;;18.70;56.40;;;;;;4988900;28;20223;-73
2023/12/06 02:55:06;;;;;;;0.25;0.25;;;18.70;56.40;;;;;;4972644;28;20193;-73
2023/12/06 02:57:32;;;;;;;0.40;0.40;;;18.70;56.40;;;;;;4972657;28;20543;-73
2023/12/06 02:59:58;;;;;;;0.30;0.30;;;18.70;56.40;;;;;;4976208;28;20251;-73
2023/12/06 03:02:23;;;;;;;0.40;0.40;;;18.70;56.40;;;;;;4954024;28;20194;-73
2023/12/06 03:04:49;;;;;;;0.22;0.22;;;18.70;56.40;;;;;;4972541;28;20213;-73
2023/12/06 03:07:15;;;;;;;0.50;0.30;;;18.70;56.40;;;;;;4973856;28;20710;-73
2023/12/06 03:09:40;;;;;;;0.30;0.30;;;18.70;56.30;;;;;;4974572;28;20220;-73
2023/12/06 03:12:07;;;;;;;0.50;0.50;;;18.70;56.40;;;;;;4956421;28;20268;-73
2023/12/06 03:14:33;;;;;;;0.30;0.30;;;18.70;56.40;;;;;;4972301;28;20186;-73
2023/12/06 03:16:59;;;;;;;0.30;0.30;;;18.70;56.40;;;;;;4956077;28;20194;-73
2023/12/06 03:19:24;;;;;;;0.60;0.50;;;18.70;56.40;;;;;;4972372;28;20225;-73
2023/12/06 03:21:50;;;;;;;0.30;0.30;;;18.70;56.40;;;;;;4971712;28;20240;-73
2023/12/06 03:24:16;;;;;;;0.30;0.30;;;18.70;56.40;;;;;;4969722;28;20215;-72
2023/12/06 03:26:42;;;;;;;0.30;0.30;;;18.70;56.40;;;;;;4956086;28;20197;-72
2023/12/06 03:29:07;;;;;;;0.30;0.30;;;18.70;56.40;;;;;;4979907;28;20248;-73
2023/12/06 03:31:33;;;;;;;0.50;0.45;;;18.80;56.50;;;;;;4953965;28;20202;-73
2023/12/06 03:33:59;;;;;;;0.40;0.40;;;18.70;56.30;;;;;;4956312;28;20198;-73
2023/12/06 03:36:25;;;;;;;0.40;0.40;;;18.70;56.30;;;;;;4985427;28;20198;-73
2023/12/06 03:38:50;;;;;;;0.30;0.30;;;18.70;56.40;;;;;;4982396;28;20222;-73
2023/12/06 03:41:16;;;;;;;0.40;0.40;;;18.70;56.40;;;;;;4964710;28;20204;-74
2023/12/06 03:43:42;;;;;;;0.40;0.40;;;18.70;56.40;;;;;;4972008;28;20202;-73
2023/12/06 03:46:08;;;;;;;0.50;0.50;;;18.70;56.40;;;;;;4973472;28;20189;-72
2023/12/06 03:48:34;;;;;;;0.50;0.38;;;18.70;56.40;;;;;;4971278;28;20237;-73
2023/12/06 03:51:00;;;;;;;0.40;0.40;;;18.70;56.40;;;;;;4966866;28;20194;-73
2023/12/06 03:53:26;;;;;;;0.43;0.40;;;18.70;56.40;;;;;;4954704;28;20191;-73
2023/12/06 03:55:51;;;;;;;0.40;0.40;;;18.70;56.50;;;;;;4951081;28;20205;-72
2023/12/06 03:58:17;;;;;;;0.20;0.20;;;18.70;56.40;;;;;;4968812;28;20205;-72
2023/12/06 04:00:43;;;;;;;0.45;0.43;;;18.70;56.40;;;;;;4988217;28;20232;-73
2023/12/06 04:03:10;;;;;;;0.30;0.30;;;18.70;56.40;;;;;;4969814;28;20194;-72
2023/12/06 04:05:35;;;;;;;0.32;0.32;;;18.70;56.40;;;;;;4971616;28;20221;-73
2023/12/06 04:08:02;;;;;;;0.40;0.40;;;18.70;56.40;;;;;;4944121;28;20206;-73
2023/12/06 04:10:28;;;;;;;0.43;0.22;;;18.70;56.40;;;;;;4963287;28;20706;-72
2023/12/06 04:12:53;;;;;;;0.30;0.30;;;18.70;56.40;;;;;;4967019;28;20198;-73
2023/12/06 04:15:19;;;;;;;0.50;0.50;;;18.70;56.40;;;;;;4953970;28;20203;-73
2023/12/06 04:17:45;;;;;;;0.28;0.28;;;18.70;56.40;;;;;;4968477;28;20201;-72
2023/12/06 04:20:11;;;;;;;0.20;0.20;;;18.70;56.40;;;;;;4967211;28;20224;-74
2023/12/06 04:22:36;;;;;;;0.28;0.28;;;18.80;56.50;;;;;;4971701;28;20677;-73
2023/12/06 04:25:03;;;;;;;0.35;0.28;;;18.70;56.40;;;;;;4971544;28;20217;-72
2023/12/06 04:27:28;;;;;;;0.60;0.45;;;18.70;56.40;;;;;;4970021;28;20708;-72
2023/12/06 04:29:54;;;;;;;0.32;0.30;;;18.70;56.40;;;;;;4981338;28;20230;-73
2023/12/06 04:32:20;;;;;;;0.20;0.20;;;18.80;56.50;;;;;;4969493;28;20193;-73
2023/12/06 04:34:56;;;;;;;0.25;0.25;;;18.70;56.40;;;;;;4986872;28;20204;-73
2023/12/06 04:37:23;;;;;;;0.30;0.30;;;18.80;56.50;;;;;;4988247;28;20224;-73
2023/12/06 04:39:48;;;;;;;0.28;0.28;;;18.70;56.40;;;;;;4972086;28;20213;-73
2023/12/06 04:42:15;;;;;;;0.50;0.22;;;18.80;56.50;;;;;;4983487;28;20197;-73
2023/12/06 04:44:41;;;;;;;0.30;0.30;;;18.70;56.40;;;;;;4971445;28;20272;-73
2023/12/06 04:47:07;;;;;;;0.32;0.32;;;18.80;56.40;;;;;;4973531;28;20201;-73
2023/12/06 04:49:33;;;;;;;0.40;0.40;;;18.70;56.40;;;;;;4971659;28;20214;-73
2023/12/06 04:52:00;;;;;;;0.30;0.30;;;18.70;56.50;;;;;;4986535;28;20280;-73
2023/12/06 04:54:27;;;;;;;0.35;0.35;;;18.70;56.40;;;;;;4952052;28;20201;-73
2023/12/06 04:56:53;;;;;;;0.50;0.50;;;18.70;56.50;;;;;;4982121;28;20610;-73
2023/12/06 04:59:18;;;;;;;0.30;0.30;;;18.70;56.40;;;;;;4977079;28;20232;-73
2023/12/06 05:01:44;;;;;;;0.40;0.40;;;18.80;56.50;;;;;;4950749;28;20201;-73
2023/12/06 05:04:10;;;;;;;0.38;0.38;;;18.70;56.40;;;;;;4971465;28;20222;-74
2023/12/06 05:06:36;;;;;;;1.00;0.30;;;18.70;56.40;;;;;;4963566;28;20269;-73
2023/12/06 05:09:07;;;;;;;0.35;0.35;;;18.70;56.40;;;;;;4971128;28;20207;-73
2023/12/06 05:11:33;;;;;;;0.50;0.50;;;18.70;56.40;;;;;;4942408;28;20194;-73
2023/12/06 05:13:59;;;;;;;0.40;0.40;;;18.80;56.50;;;;;;4956572;28;20187;-73
2023/12/06 05:16:25;;;;;;;0.50;0.50;;;18.70;56.40;;;;;;4971884;28;20240;-73
2023/12/06 05:18:50;;;;;;;1.00;0.30;;;18.80;56.50;;;;;;4974445;28;20289;-72
2023/12/06 05:21:16;;;;;;;0.30;0.30;;;18.80;56.50;;;;;;4991475;28;20193;-73
2023/12/06 05:23:42;;;;;;;0.55;0.55;;;18.80;56.50;;;;;;4990495;28;20281;-73
2023/12/06 05:26:08;;;;;;;0.50;0.50;;;18.80;56.50;;;;;;4988806;28;20308;-73
2023/12/06 05:28:34;;;;;;;0.40;0.40;;;18.80;56.50;;;;;;4983532;28;20205;-73
2023/12/06 05:31:00;;;;;;;0.28;0.22;;;18.80;56.50;;;;;;4975459;28;20216;-73
2023/12/06 05:33:27;;;;;;;0.38;0.38;;;18.70;56.40;;;;;;4984274;28;20208;-72
2023/12/06 05:35:55;;;;;;;0.30;0.30;;;18.80;56.60;;;;;;4980602;28;20204;-72
2023/12/06 05:38:22;;;;;;;0.30;0.30;;;18.70;56.40;;;;;;4968194;28;20201;-71
2023/12/06 05:40:49;;;;;;;0.40;0.40;;;18.70;56.40;;;;;;4974081;28;20622;-73
2023/12/06 05:43:15;;;;;;;0.40;0.40;;;18.80;56.50;;;;;;4978168;28;20190;-73
2023/12/06 05:45:41;;;;;;;0.30;0.30;;;18.80;56.60;;;;;;4974433;28;20221;-72
2023/12/06 05:48:07;;;;;;;0.75;0.40;;;18.80;56.50;;;;;;4975404;28;20192;-73
2023/12/06 05:50:34;;;;;;;0.35;0.35;;;18.70;56.50;;;;;;4973441;28;20193;-73
2023/12/06 05:53:02;;;;;;;0.40;0.40;;;18.70;56.40;;;;;;4974293;28;20201;-73
2023/12/06 05:55:28;;;;;;;0.50;0.50;;;18.70;56.50;;;;;;4972577;28;20198;-73
2023/12/06 05:57:54;;;;;;;0.45;0.45;;;18.70;56.40;;;;;;4973790;28;20220;-72
2023/12/06 06:00:19;;;;;;;0.50;0.45;;;18.70;56.50;;;;;;4973610;28;20256;-73
2023/12/06 06:02:45;;;;;;;0.40;0.40;;;18.80;56.60;;;;;;4962143;28;20205;-72
2023/12/06 06:05:12;;;;;;;0.63;0.55;;;18.80;56.50;;;;;;4969446;28;20213;-71
2023/12/06 06:07:38;;;;;;;0.50;0.50;;;18.80;56.60;;;;;;4981001;28;20259;-72
2023/12/06 06:10:04;;;;;;;0.45;0.43;;;18.70;56.40;;;;;;4963744;28;20295;-71
2023/12/06 06:12:30;;;;;;;0.38;0.38;;;18.80;56.50;;;;;;4975341;28;20635;-73
2023/12/06 06:14:56;;;;;;;0.30;0.30;;;18.80;56.60;;;;;;4973504;28;20284;-72
2023/12/06 06:17:23;;;;;;;0.68;0.50;;;18.80;56.60;;;;;;4987045;28;20198;-73
2023/12/06 06:19:49;;;;;;;0.68;0.50;;;18.80;56.60;;;;;;4981789;28;20228;-72
2023/12/06 06:22:14;;;;;;;0.82;0.50;;;18.80;56.60;;;;;;4980889;28;20193;-74
2023/12/06 06:24:40;;;;;;;0.40;0.40;;;18.80;56.60;;;;;;4973913;28;20277;-74
2023/12/06 06:27:06;;;;;;;0.40;0.40;;;18.80;56.60;;;;;;4954407;28;20190;-73
2023/12/06 06:29:32;;;;;;;0.55;0.52;;;18.80;56.60;;;;;;4987129;28;20217;-74
2023/12/06 06:31:58;;;;;;;0.60;0.60;;;18.80;56.60;;;;;;4989749;28;20182;-73
2023/12/06 06:34:23;;;;;;;0.57;0.57;;;18.80;56.60;;;;;;4972655;28;20197;-73
2023/12/06 06:36:49;;;;;;;0.40;0.40;;;18.80;56.60;;;;;;4989085;28;20213;-74
2023/12/06 06:39:15;;;;;;;0.60;0.60;;;18.80;56.60;;;;;;4953264;28;20239;-73
2023/12/06 06:41:40;;;;;;;0.60;0.60;;;18.80;56.60;;;;;;4972103;28;20202;-74
2023/12/06 06:44:06;;;;;;;0.50;0.50;;;18.80;56.60;;;;;;4989173;28;20201;-74
2023/12/06 06:46:32;;;;;;;0.50;0.50;;;18.80;56.60;;;;;;4972607;28;20284;-74
2023/12/06 06:48:58;;;;;;;0.50;0.50;;;18.80;56.60;;;;;;4972375;28;20217;-74
2023/12/06 06:51:37;;;;;;;0.82;0.50;;;18.80;56.60;;;;;;4972870;28;20285;-74
2023/12/06 06:54:06;;;;;;;0.57;0.57;;;18.80;56.60;;;;;;4988831;28;20182;-73
2023/12/06 06:56:33;;;;;;;0.73;0.50;;;18.80;56.60;;;;;;4972390;28;20197;-73
2023/12/06 06:59:02;;;;;;;0.50;0.50;;;18.80;56.60;;;;;;4972266;28;20197;-74
2023/12/06 07:01:28;;;;;;;0.80;0.80;;;18.80;56.60;;;;;;4972509;28;20192;-73
2023/12/06 07:03:54;;;;;;;0.68;0.68;;;18.80;56.60;;;;;;4988642;28;20178;-73
2023/12/06 07:06:20;;;;;;;0.75;0.75;;;18.80;56.60;;;;;;4972734;28;20728;-73
2023/12/06 07:08:47;;;;;;;0.68;0.68;;;18.80;56.60;;;;;;4962564;28;20210;-73
2023/12/06 07:11:13;;;;;;;0.50;0.50;;;18.80;56.60;;;;;;4995508;28;20195;-74
2023/12/06 07:13:39;;;;;;;0.95;0.60;;;18.80;56.60;;;;;;4957018;28;20190;-73
2023/12/06 07:16:05;;;;;;;1.05;0.70;;;18.80;56.60;;;;;;4972600;28;20189;-73
2023/12/06 07:18:34;;;;;;;0.60;0.60;;;18.80;56.60;;;;;;4955713;28;20233;-73
2023/12/06 07:21:00;;;;;;;1.17;0.60;;;18.80;56.60;;;;;;4973565;28;20276;-73
2023/12/06 07:23:26;;;;;;;0.52;0.52;;;18.80;56.60;;;;;;4972144;28;20217;-74
2023/12/06 07:25:53;;;;;;;0.60;0.60;;;18.80;56.60;;;;;;4972380;28;20264;-72
2023/12/06 07:28:19;;;;;;;0.52;0.52;;;18.80;56.60;;;;;;4987926;28;20192;-73
2023/12/06 07:30:45;;;;;;;0.75;0.60;;;18.80;56.60;;;;;;4972738;28;20198;-73
2023/12/06 07:33:11;;;;;;;1.00;0.60;;;18.80;56.60;;;;;;4972027;28;20669;-73
2023/12/06 07:35:37;;;;;;;0.90;0.80;;;18.80;56.60;;;;;;4988189;28;20268;-73
2023/12/06 07:38:05;;;;;;;0.60;0.60;;;18.80;56.60;;;;;;4971847;28;20193;-73
2023/12/06 07:40:31;;;;;;;1.27;0.50;;;18.80;56.60;;;;;;4971947;28;20383;-73
2023/12/06 07:42:56;;;;;;;1.67;0.60;;;18.80;56.60;;;;;;4988223;28;20194;-74
2023/12/06 07:45:22;;;;;;;0.68;0.52;;;18.80;56.60;;;;;;4972152;28;20216;-73
2023/12/06 07:47:48;;;;;;;0.70;0.70;;;18.80;56.60;;;;;;4957509;28;20556;-75
2023/12/06 07:50:14;;;;;;;0.82;0.70;;;18.80;56.60;;;;;;4971755;28;20198;-74
2023/12/06 07:52:40;;;;;;;0.52;0.52;;;18.80;56.60;;;;;;4987925;28;20194;-74
2023/12/06 07:55:06;;;;;;;0.75;0.60;;;18.80;56.60;;;;;;4988222;28;20197;-74
2023/12/06 07:57:36;;;;;;;0.63;0.63;;;18.80;56.60;;;;;;4978686;28;20197;-73
2023/12/06 08:00:04;;;;;;;0.82;0.82;;;18.80;56.60;;;;;;4971730;28;20213;-73
2023/12/06 08:02:42;;;;;;;0.80;0.80;;;18.80;56.60;;;;;;4972944;28;20280;-74
2023/12/06 08:05:11;;;;;;;0.80;0.80;;;18.80;56.60;;;;;;4971756;28;20272;-73
2023/12/06 08:07:38;;;;;;;0.80;0.73;;;18.80;56.60;;;;;;4972105;28;20184;-74
2023/12/06 08:10:09;;;;;;;0.70;0.70;;;18.80;56.60;;;;;;4992255;28;20210;-73
2023/12/06 08:12:36;;;;;;;0.70;0.70;;;18.80;56.60;;;;;;4998785;28;20221;-73
2023/12/06 08:15:07;;;;;;;0.70;0.70;;;18.80;56.60;;;;;;4975816;28;20186;-73
2023/12/06 08:17:32;;;;;;;0.77;0.77;;;18.80;56.60;;;;;;4975674;28;20289;-72
2023/12/06 08:19:59;;;;;;;1.20;0.70;;;18.80;56.60;;;;;;4991644;28;20376;-73
2023/12/06 08:22:26;;;;;;;0.80;0.80;;;18.80;56.60;;;;;;4975755;28;20269;-73
2023/12/06 08:24:57;;;;;;;0.80;0.80;;;18.80;56.60;;;;;;4977236;28;20213;-73
2023/12/06 08:27:28;;;;;;;0.80;0.80;;;18.80;56.60;;;;;;4991592;28;20567;-73
2023/12/06 08:30:00;;;;;;;0.70;0.70;;;18.80;56.60;;;;;;4981588;28;20213;-73
2023/12/06 08:32:27;;;;;;;0.60;0.60;;;18.80;56.60;;;;;;4975253;28;20640;-73
2023/12/06 08:34:53;;;;;;;0.60;0.60;;;18.80;56.70;;;;;;4959174;28;20185;-74
2023/12/06 08:37:19;;;;;;;0.50;0.50;;;18.80;56.60;;;;;;4975364;28;20276;-74
2023/12/06 08:39:45;;;;;;;0.73;0.73;;;18.80;56.60;;;;;;4973372;28;20268;-73
2023/12/06 08:42:15;;;;;;;0.93;0.70;;;18.80;56.60;;;;;;4975422;28;20197;-74
2023/12/06 08:44:41;;;;;;;0.70;0.70;;;18.80;56.60;;;;;;4991156;28;20209;-73
2023/12/06 08:47:11;;;;;;;0.88;0.88;;;18.80;56.60;;;;;;4976518;28;20268;-74
2023/12/06 08:49:38;;;;;;;0.63;0.63;;;18.80;57.20;;;;;;4974992;28;20210;-74
2023/12/06 08:52:07;;;;;;;1.30;0.70;;;18.80;56.70;;;;;;4979301;28;20197;-74
2023/12/06 08:54:34;;;;;;;0.73;0.73;;;18.80;56.70;;;;;;4974930;28;20201;-74
2023/12/06 08:57:01;;;;;;;0.70;0.70;;;18.80;56.70;;;;;;4991025;28;20186;-74
2023/12/06 08:59:26;;;;;;;0.85;0.80;;;18.80;56.70;;;;;;4990868;28;20272;-73
2023/12/06 09:01:52;;;;;;;1.95;0.75;;;18.80;56.70;;;;;;4958722;28;20181;-74
2023/12/06 09:04:19;;;;;;;0.70;0.60;;;18.80;56.60;;;;;;4990934;28;20217;-74
2023/12/06 09:06:45;;;;;;;0.88;0.70;;;18.80;56.60;;;;;;4994850;28;20192;-73
2023/12/06 09:09:11;;;;;;;1.70;0.70;;;18.80;56.60;;;;;;4990025;28;20237;-73
2023/12/06 09:11:37;;;;;;;0.80;0.80;;;18.80;56.60;;;;;;4974373;28;20213;-73
2023/12/06 09:14:02;;;;;;;0.65;0.60;;;18.90;56.60;;;;;;4974438;28;20178;-71
2023/12/06 09:16:28;;;;;;;0.75;0.60;;;18.90;56.60;;;;;;4978656;28;20177;-73
2023/12/06 09:18:55;;;;;;;1.35;0.98;;;18.90;56.60;;;;;;4989875;28;20202;-72
2023/12/06 09:21:26;;;;;;;0.70;0.70;;;18.90;56.60;;;;;;4974700;28;20220;-74
2023/12/06 09:23:52;;;;;;;0.63;0.63;;;18.90;56.60;;;;;;4976528;28;20197;-73
2023/12/06 09:26:19;;;;;;;0.77;0.68;;;18.90;56.60;;;;;;4974334;28;20245;-73
2023/12/06 09:28:45;;;;;;;0.80;0.80;;;18.90;56.60;;;;;;4973325;28;20708;-74
2023/12/06 09:31:10;;;;;;;0.70;0.70;;;18.90;56.60;;;;;;4979584;28;20197;-74
2023/12/06 09:33:36;;;;;;;0.70;0.70;;;18.90;56.60;;;;;;4975377;28;20186;-74
2023/12/06 09:36:03;;;;;;;0.65;0.65;;;18.90;56.60;;;;;;4990517;28;20189;-74
2023/12/06 09:38:29;;;;;;;0.82;0.82;;;18.90;56.60;;;;;;4979754;28;20212;-74
2023/12/06 09:40:55;;;;;;;0.60;0.60;;;19.00;56.70;;;;;;4963969;28;20255;-73
2023/12/06 09:43:21;;;;;;;0.65;0.60;;;18.90;56.60;;;;;;4974250;28;20186;-74
2023/12/06 09:45:47;;;;;;;0.73;0.73;;;19.00;56.70;;;;;;4957842;28;20220;-74
2023/12/06 09:48:14;;;;;;;0.55;0.55;;;18.90;56.60;;;;;;4978860;28;20561;-72
2023/12/06 09:50:40;;;;;;;0.70;0.70;;;18.90;56.60;;;;;;4958178;28;20204;-73
2023/12/06 09:53:06;;;;;;;0.65;0.65;;;18.90;56.60;;;;;;4970723;28;20190;-73
2023/12/06 09:55:35;;;;;;;0.60;0.60;;;18.90;56.60;;;;;;4988416;28;20225;-73
2023/12/06 09:58:01;;;;;;;0.70;0.60;;;18.90;56.60;;;;;;4960086;28;20193;-73
2023/12/06 10:00:27;;;;;;;0.80;0.80;;;18.90;56.60;;;;;;4979428;28;20228;-73
2023/12/06 10:02:55;;;;;;;1.08;0.82;;;19.00;56.70;;;;;;4989761;28;20194;-73
2023/12/06 10:05:22;;;;;;;0.63;0.63;;;18.90;56.60;;;;;;4973470;28;20692;-73
2023/12/06 10:07:48;;;;;;;0.80;0.80;;;19.00;56.80;;;;;;4973567;28;20201;-73
2023/12/06 10:10:22;;;;;;;0.85;0.85;;;19.00;56.70;;;;;;4973437;28;20708;-73
2023/12/06 10:12:55;;;;;;;0.77;0.77;;;18.90;56.70;;;;;;4957749;28;20197;-74
2023/12/06 10:15:22;;;;;;;1.08;0.93;;;18.90;56.60;;;;;;4962650;28;20574;-73
2023/12/06 10:17:48;;;;;;;0.68;0.68;;;19.00;56.70;;;;;;4967597;28;20198;-73
2023/12/06 10:20:15;;;;;;;0.90;0.90;;;19.00;56.70;;;;;;4973260;28;20205;-74
2023/12/06 10:22:41;;;;;;;0.98;0.77;;;19.00;57.40;;;;;;4978429;28;20204;-74
2023/12/06 10:25:08;;;;;;;0.60;0.60;;;19.00;56.70;;;;;;4973084;28;20224;-73
2023/12/06 10:27:36;;;;;;;0.68;0.68;;;19.00;56.80;;;;;;4972962;28;20185;-73
2023/12/06 10:30:04;;;;;;;0.70;0.70;;;19.00;56.80;;;;;;4979306;28;20224;-72
2023/12/06 10:32:32;;;;;;;0.70;0.70;;;19.00;56.70;;;;;;4989057;28;20189;-73
2023/12/06 10:35:05;;;;;;;0.82;0.82;;;19.00;56.70;;;;;;4955771;28;20209;-74
2023/12/06 10:37:32;;;;;;;0.68;0.68;;;19.00;56.70;;;;;;4973014;28;20186;-75
2023/12/06 10:40:09;;;;;;;0.70;0.70;;;18.90;56.60;;;;;;4972884;28;20227;-73
2023/12/06 10:42:36;;;;;;;0.80;0.80;;;19.00;56.70;;;;;;4971715;28;20194;-74
2023/12/06 10:45:04;;;;;;;0.75;0.75;;;19.00;56.70;;;;;;4969543;28;20309;-73
2023/12/06 10:47:31;;;;;;;0.70;0.70;;;19.00;56.70;;;;;;4972653;28;20221;-73
2023/12/06 10:49:59;;;;;;;0.77;0.77;;;19.00;56.70;;;;;;4973946;28;20216;-74
2023/12/06 10:52:26;;;;;;;1.48;0.80;;;19.00;56.70;;;;;;4972867;28;20197;-74
2023/12/06 10:54:55;;;;;;;0.80;0.80;;;19.00;56.70;;;;;;4957630;28;20206;-74
2023/12/06 10:57:23;;;;;;;0.73;0.68;;;19.00;56.70;;;;;;4992057;28;20196;-73
2023/12/06 10:59:51;;;;;;;0.70;0.70;;;19.00;56.70;;;;;;4993267;28;20343;-72
2023/12/06 11:02:18;;;;;;;0.68;0.68;;;19.00;56.70;;;;;;4989023;28;20319;-74
2023/12/06 11:04:54;;;;;;;0.70;0.70;;;19.00;56.70;;;;;;4985439;28;20222;-74
2023/12/06 11:07:44;;;;;;;0.70;0.70;;;19.00;56.70;;;;;;4973863;28;20286;-73
2023/12/06 11:10:36;;;;;;;0.70;0.65;;;19.00;56.70;;;;;;4964597;28;20207;-74
2023/12/06 11:13:42;;;;;;;0.80;0.80;;;19.00;56.70;;;;;;4986639;28;20218;-74
2023/12/06 11:17:06;;;;;;;0.70;0.70;;;19.00;56.70;;;;;;4971999;28;20177;-72
2023/12/06 11:19:35;;;;;;;0.90;0.90;;;19.00;56.70;;;;;;4976584;28;20217;-72
2023/12/06 11:22:06;;;;;;;0.93;0.93;;;19.00;56.70;;;;;;4960567;28;20336;-73
2023/12/06 11:24:33;;;;;;;0.70;0.70;;;19.00;56.70;;;;;;4975551;28;20228;-73
2023/12/06 11:26:59;;;;;;;0.68;0.68;;;19.00;56.70;;;;;;4973299;28;20192;-73
2023/12/06 11:29:26;;;;;;;0.70;0.70;;;19.00;56.70;;;;;;4957299;28;20202;-74
2023/12/06 11:31:58;;;;;;;0.80;0.80;;;19.00;56.70;;;;;;4975017;28;20205;-73
2023/12/06 11:34:36;;;;;;;0.85;0.80;;;19.00;56.70;;;;;;4972455;28;20284;-74
2023/12/06 11:37:15;;;;;;;0.90;0.90;;;19.00;56.70;;;;;;4971918;28;20197;-74
2023/12/06 11:39:41;;;;;;;1.00;1.00;;;19.00;56.80;;;;;;4992624;28;20213;-73
2023/12/06 11:42:08;;;;;;;1.00;1.00;;;19.00;56.70;;;;;;4955675;28;20248;-74
2023/12/06 11:44:34;;;;;;;0.63;0.63;;;19.00;56.80;;;;;;4987931;28;20217;-74
2023/12/06 11:47:06;;;;;;;0.80;0.80;;;19.00;56.70;;;;;;4972186;28;20193;-74
2023/12/06 11:49:32;;;;;;;0.77;0.77;;;19.00;56.70;;;;;;4971918;28;20209;-74
2023/12/06 11:52:01;;;;;;;0.70;0.70;;;19.00;56.80;;;;;;4987696;28;20192;-72
2023/12/06 11:54:32;;;;;;;0.80;0.80;;;19.00;56.80;;;;;;4973264;28;20194;-73
2023/12/06 11:57:08;;;;;;;0.95;0.90;;;19.00;56.70;;;;;;4974143;28;20226;-73
2023/12/06 11:59:34;;;;;;;0.77;0.77;;;19.10;56.80;;;;;;4988081;28;20209;-72
2023/12/06 12:02:01;;;;;;;0.90;0.90;;;19.00;56.70;;;;;;4975532;28;20198;-73
2023/12/06 12:04:28;;;;;;;1.10;1.00;;;19.00;56.70;;;;;;4972113;28;20209;-73
2023/12/06 12:06:54;;;;;;;1.25;1.00;;;19.00;56.70;;;;;;4974407;28;20193;-73
2023/12/06 12:09:21;;;;;;;1.20;0.80;;;19.00;56.70;;;;;;4991650;28;20300;-74
2023/12/06 12:11:47;;;;;;;0.85;0.85;;;19.00;56.70;;;;;;4983961;28;20196;-73
2023/12/06 12:14:12;;;;;;;1.10;1.00;;;19.00;56.80;;;;;;4973105;28;20185;-74
2023/12/06 12:16:39;;;;;;;0.90;0.90;;;19.00;56.80;;;;;;4971894;28;20241;-74
2023/12/06 12:19:06;;;;;;;0.80;0.80;;;19.00;56.70;;;;;;4986115;28;20218;-74
2023/12/06 12:21:32;;;;;;;0.80;0.80;;;19.00;56.70;;;;;;4971779;28;20240;-74
2023/12/06 12:24:00;;;;;;;1.05;0.98;;;19.00;56.70;;;;;;4979007;28;20205;-74
2023/12/06 12:26:26;;;;;;;0.98;0.98;;;19.00;56.70;;;;;;4971433;28;20248;-75
2023/12/06 12:28:52;;;;;;;0.70;0.70;;;19.00;56.70;;;;;;4963009;28;20213;-75
2023/12/06 12:31:31;;;;;;;1.40;0.77;;;19.00;56.80;;;;;;4987649;28;20197;-73
2023/12/06 12:33:58;;;;;;;1.00;1.00;;;19.00;56.80;;;;;;4985110;28;20190;-75
2023/12/06 12:36:26;;;;;;;1.02;1.02;;;19.00;56.80;;;;;;4987903;28;20185;-74
2023/12/06 12:38:52;;;;;;;0.95;0.95;;;19.00;56.70;;;;;;4971262;28;20218;-74
2023/12/06 12:41:18;;;;;;;0.73;0.73;;;19.00;56.80;;;;;;4971899;28;20203;-75
2023/12/06 12:43:43;;;;;;;0.90;0.90;;;19.00;56.80;;;;;;4965695;28;20205;-74
2023/12/06 12:46:10;;;;;;;0.90;0.90;;;19.00;56.80;;;;;;4955586;28;20225;-75
2023/12/06 12:48:36;;;;;;;0.90;0.90;;;19.00;56.70;;;;;;4971516;28;20214;-74